createdAt,value
2023-02-08T00:01:14.793Z,-10.68
2023-02-08T00:03:42.998Z,-10.63
2023-02-08T00:06:11.057Z,-10.74
2023-02-08T00:08:39.007Z,-10.73
2023-02-08T00:11:07.825Z,-10.65
2023-02-08T00:13:35.593Z,-10.63
2023-02-08T00:16:03.205Z,-10.61
2023-02-08T00:18:30.419Z,-10.66
2023-02-08T00:20:57.843Z,-10.56
2023-02-08T00:23:25.850Z,-10.60
2023-02-08T00:25:53.186Z,-10.65
2023-02-08T00:28:20.984Z,-10.78
2023-02-08T00:30:49.456Z,-10.69
2023-02-08T00:33:16.669Z,-10.71
2023-02-08T00:35:44.189Z,-10.74
2023-02-08T00:38:12.572Z,-10.74
2023-02-08T00:40:40.243Z,-10.71
2023-02-08T00:43:07.566Z,-10.72
2023-02-08T00:45:35.729Z,-10.74
2023-02-08T00:48:04.962Z,-10.69
2023-02-08T00:50:32.738Z,-10.64
2023-02-08T00:53:00.329Z,-10.64
2023-02-08T00:55:28.208Z,-10.72
2023-02-08T00:57:55.990Z,-10.57
2023-02-08T01:00:23.395Z,-10.67
2023-02-08T01:02:50.843Z,-10.65
2023-02-08T01:05:18.720Z,-10.71
2023-02-08T01:07:46.231Z,-10.68
2023-02-08T01:10:13.545Z,-10.68
2023-02-08T01:12:41.627Z,-10.58
2023-02-08T01:15:10.194Z,-10.68
2023-02-08T01:17:39.811Z,-10.64
2023-02-08T01:20:07.976Z,-10.60
2023-02-08T01:22:36.820Z,-10.65
2023-02-08T01:25:05.293Z,-10.78
2023-02-08T01:27:33.034Z,-10.76
2023-02-08T01:30:00.497Z,-10.81
2023-02-08T01:32:28.653Z,-10.77
2023-02-08T01:34:56.380Z,-10.83
2023-02-08T01:37:24.107Z,-10.86
2023-02-08T01:39:51.391Z,-10.84
2023-02-08T01:42:20.957Z,-10.89
2023-02-08T01:45:16.653Z,-10.83
2023-02-08T01:47:48.836Z,-10.81
2023-02-08T01:50:19.682Z,-10.89
2023-02-08T01:52:51.492Z,-10.83
2023-02-08T01:55:30.331Z,-10.90
2023-02-08T01:58:01.886Z,-10.84
2023-02-08T02:00:32.049Z,-10.85
2023-02-08T02:03:03.530Z,-10.89
2023-02-08T02:05:42.854Z,-10.79
2023-02-08T02:08:12.411Z,-10.80
2023-02-08T02:10:42.772Z,-10.83
2023-02-08T02:13:15.217Z,-10.89
2023-02-08T02:15:46.056Z,-10.78
2023-02-08T02:18:20.165Z,-10.76
2023-02-08T02:21:04.079Z,-10.74
2023-02-08T02:23:55.387Z,-10.71
2023-02-08T02:26:38.958Z,-10.66
2023-02-08T02:29:42.935Z,-10.70
2023-02-08T02:32:26.703Z,-10.80
2023-02-08T02:35:03.068Z,-10.65
2023-02-08T02:37:42.292Z,-10.71
2023-02-08T02:40:21.837Z,-10.68
2023-02-08T02:43:14.440Z,-10.67
2023-02-08T02:45:57.496Z,-10.63
2023-02-08T02:48:55.416Z,-10.71
2023-02-08T02:51:32.419Z,-10.69
2023-02-08T02:54:14.624Z,-10.68
2023-02-08T02:56:46.061Z,-10.80
2023-02-08T02:59:15.756Z,-10.77
2023-02-08T03:01:45.215Z,-10.77
2023-02-08T03:04:15.194Z,-10.89
2023-02-08T03:07:06.629Z,-10.97
2023-02-08T03:09:49.307Z,-11.01
2023-02-08T03:12:35.837Z,-11.03
2023-02-08T03:15:30.204Z,-11.03
2023-02-08T03:18:41.349Z,-11.02
2023-02-08T03:21:42.922Z,-11.08
2023-02-08T03:24:13.625Z,-11.05
2023-02-08T03:26:51.471Z,-10.95
2023-02-08T03:29:37.515Z,-11.12
2023-02-08T03:32:12.317Z,-11.12
2023-02-08T03:35:05.247Z,-11.02
2023-02-08T03:37:44.752Z,-11.16
2023-02-08T03:40:36.081Z,-11.10
2023-02-08T03:43:37.807Z,-11.04
2023-02-08T03:46:25.690Z,-11.07
2023-02-08T03:48:59.848Z,-11.13
2023-02-08T03:51:30.748Z,-11.08
2023-02-08T03:54:01.972Z,-11.20
2023-02-08T03:56:50.481Z,-11.18
2023-02-08T03:59:23.761Z,-11.23
2023-02-08T04:01:59.566Z,-11.09
2023-02-08T04:04:31.925Z,-11.14
2023-02-08T04:06:59.232Z,-11.29
2023-02-08T04:09:27.385Z,-11.36
2023-02-08T04:11:55.416Z,-11.35
2023-02-08T04:14:23.527Z,-11.34
2023-02-08T04:16:51.260Z,-11.39
2023-02-08T04:19:18.839Z,-11.47
2023-02-08T04:21:46.560Z,-11.52
2023-02-08T04:24:13.792Z,-11.49
2023-02-08T04:26:41.715Z,-11.54
2023-02-08T04:29:09.243Z,-11.60
2023-02-08T04:31:38.508Z,-11.64
2023-02-08T04:34:11.639Z,-11.60
2023-02-08T04:36:39.310Z,-11.72
2023-02-08T04:39:06.797Z,-11.65
2023-02-08T04:41:34.350Z,-11.67
2023-02-08T04:44:01.987Z,-11.64
2023-02-08T04:46:29.605Z,-11.72
2023-02-08T04:48:58.834Z,-11.74
2023-02-08T04:51:26.667Z,-11.81
2023-02-08T04:53:54.385Z,-11.82
2023-02-08T04:56:21.831Z,-11.87
2023-02-08T04:58:50.241Z,-11.88
2023-02-08T05:01:18.005Z,-11.94
2023-02-08T05:03:45.678Z,-12.02
2023-02-08T05:06:14.018Z,-12.04
2023-02-08T05:08:42.364Z,-12.06
2023-02-08T05:11:10.079Z,-12.16
2023-02-08T05:13:38.200Z,-12.11
2023-02-08T05:16:06.116Z,-12.13
2023-02-08T05:18:33.810Z,-12.16
2023-02-08T05:21:02.275Z,-12.18
2023-02-08T05:23:30.117Z,-12.24
2023-02-08T05:25:58.038Z,-12.30
2023-02-08T05:28:26.457Z,-12.34
2023-02-08T05:30:54.330Z,-12.37
2023-02-08T05:33:22.754Z,-12.47
2023-02-08T05:35:50.429Z,-12.54
2023-02-08T05:38:18.171Z,-12.62
2023-02-08T05:40:45.892Z,-12.66
2023-02-08T05:43:13.786Z,-12.68
2023-02-08T05:45:41.677Z,-12.68
2023-02-08T05:48:09.675Z,-12.62
2023-02-08T05:50:37.585Z,-12.43
2023-02-08T05:53:05.390Z,-12.16
2023-02-08T05:55:33.076Z,-11.92
2023-02-08T05:58:00.709Z,-11.63
2023-02-08T06:00:28.176Z,-11.28
2023-02-08T06:02:58.024Z,-10.94
2023-02-08T06:05:25.486Z,-10.75
2023-02-08T06:07:52.787Z,-10.59
2023-02-08T06:10:20.007Z,-10.35
2023-02-08T06:12:47.834Z,-10.17
2023-02-08T06:15:16.186Z,-9.95
2023-02-08T06:17:43.719Z,-9.59
2023-02-08T06:20:11.682Z,-9.24
2023-02-08T06:22:39.310Z,-9.03
2023-02-08T06:25:07.283Z,-8.84
2023-02-08T06:27:35.199Z,-8.65
2023-02-08T06:30:03.348Z,-8.31
2023-02-08T06:32:31.255Z,-7.88
2023-02-08T06:34:59.135Z,-7.58
2023-02-08T06:37:26.986Z,-7.46
2023-02-08T06:39:54.174Z,-7.17
2023-02-08T06:42:22.319Z,-7.00
2023-02-08T06:44:55.156Z,-6.72
2023-02-08T06:47:24.561Z,-6.55
2023-02-08T06:49:52.993Z,-6.32
2023-02-08T06:52:21.506Z,-6.14
2023-02-08T06:54:49.223Z,-5.89
2023-02-08T06:57:17.431Z,-5.75
2023-02-08T06:59:44.988Z,-5.64
2023-02-08T07:02:20.072Z,-5.67
2023-02-08T07:04:48.846Z,-5.49
2023-02-08T07:07:18.053Z,-5.42
2023-02-08T07:09:46.148Z,-5.25
2023-02-08T07:12:13.726Z,-5.03
2023-02-08T07:14:44.027Z,-4.75
2023-02-08T07:17:12.543Z,-4.19
2023-02-08T07:19:40.826Z,-3.83
2023-02-08T07:22:11.472Z,-3.63
2023-02-08T07:24:40.844Z,-3.51
2023-02-08T07:27:10.299Z,-3.37
2023-02-08T07:29:38.056Z,-3.37
2023-02-08T07:32:07.579Z,-3.27
2023-02-08T07:34:37.518Z,-3.24
2023-02-08T07:37:04.878Z,-2.95
2023-02-08T07:39:33.337Z,-2.47
2023-02-08T07:42:01.655Z,-2.28
2023-02-08T07:44:35.716Z,-1.87
2023-02-08T07:47:03.630Z,-1.66
2023-02-08T07:49:32.154Z,-1.44
2023-02-08T07:52:03.120Z,-0.62
2023-02-08T07:54:33.944Z,0.45
2023-02-08T07:57:03.521Z,1.15
2023-02-08T07:59:31.599Z,1.79
2023-02-08T08:01:59.217Z,2.76
2023-02-08T08:04:26.828Z,3.57
2023-02-08T08:06:56.243Z,4.59
2023-02-08T08:09:24.595Z,5.49
2023-02-08T08:11:52.053Z,6.29
2023-02-08T08:14:20.437Z,7.16
2023-02-08T08:16:47.987Z,7.94
2023-02-08T08:19:15.684Z,8.67
2023-02-08T08:21:45.163Z,8.91
2023-02-08T08:24:12.522Z,9.03
2023-02-08T08:26:40.103Z,8.86
2023-02-08T08:29:08.326Z,8.26
2023-02-08T08:31:37.005Z,8.01
2023-02-08T08:34:04.632Z,8.10
2023-02-08T08:36:33.104Z,8.43
2023-02-08T08:39:00.682Z,8.96
2023-02-08T08:41:29.043Z,9.34
2023-02-08T08:43:56.485Z,9.74
2023-02-08T08:46:24.155Z,10.13
2023-02-08T08:48:52.293Z,10.54
2023-02-08T08:51:20.360Z,10.49
2023-02-08T08:53:48.006Z,10.36
2023-02-08T08:56:15.449Z,10.64
2023-02-08T08:58:44.087Z,11.09
2023-02-08T09:01:14.290Z,10.15
2023-02-08T09:03:41.683Z,9.95
2023-02-08T09:06:09.267Z,10.18
2023-02-08T09:08:36.758Z,10.43
2023-02-08T09:11:10.063Z,10.65
2023-02-08T09:13:38.820Z,10.57
2023-02-08T09:16:10.317Z,10.41
2023-02-08T09:18:38.040Z,10.30
2023-02-08T09:21:15.986Z,9.63
2023-02-08T09:23:44.085Z,9.17
2023-02-08T09:26:13.690Z,9.14
2023-02-08T09:28:41.771Z,9.02
2023-02-08T09:31:10.840Z,9.22
2023-02-08T09:33:39.211Z,9.00
2023-02-08T09:36:07.435Z,8.77
2023-02-08T09:38:35.164Z,9.40
2023-02-08T09:41:30.711Z,9.36
2023-02-08T09:44:30.704Z,9.31
2023-02-08T09:47:15.412Z,9.56
2023-02-08T09:50:20.238Z,9.48
2023-02-08T09:53:01.282Z,9.58
2023-02-08T09:55:52.233Z,9.15
2023-02-08T09:58:29.728Z,9.22
2023-02-08T10:00:59.040Z,9.68
2023-02-08T10:03:42.919Z,10.25
2023-02-08T10:06:14.158Z,10.97
2023-02-08T10:08:43.151Z,11.62
2023-02-08T10:11:19.397Z,11.51
2023-02-08T10:13:58.609Z,11.88
2023-02-08T10:16:50.312Z,12.39
2023-02-08T10:19:37.913Z,12.59
2023-02-08T10:22:26.770Z,12.96
2023-02-08T10:25:00.793Z,13.22
2023-02-08T10:28:08.841Z,13.06
2023-02-08T10:30:52.880Z,13.11
2023-02-08T10:33:51.779Z,11.96
2023-02-08T10:36:22.406Z,10.92
2023-02-08T10:38:55.069Z,10.69
2023-02-08T10:41:29.359Z,11.31
2023-02-08T10:44:03.875Z,12.16
2023-02-08T10:46:42.173Z,12.96
2023-02-08T10:49:47.586Z,12.68
2023-02-08T10:52:15.343Z,13.26
2023-02-08T10:54:42.999Z,13.52
2023-02-08T10:57:22.568Z,13.97
2023-02-08T10:59:56.356Z,14.30
2023-02-08T11:02:29.543Z,14.61
2023-02-08T11:05:15.692Z,14.37
2023-02-08T11:07:44.532Z,13.67
2023-02-08T11:10:25.061Z,13.98
2023-02-08T11:13:16.432Z,14.50
2023-02-08T11:15:48.809Z,14.97
2023-02-08T11:18:36.450Z,15.06
2023-02-08T11:21:12.991Z,15.18
2023-02-08T11:23:43.468Z,15.40
2023-02-08T11:26:19.701Z,15.24
2023-02-08T11:29:02.785Z,15.37
2023-02-08T11:31:30.851Z,15.21
2023-02-08T11:34:05.851Z,14.74
2023-02-08T11:36:36.457Z,15.08
2023-02-08T11:39:18.660Z,14.20
2023-02-08T11:41:50.076Z,13.98
2023-02-08T11:44:29.501Z,12.51
2023-02-08T11:47:02.021Z,12.35
2023-02-08T11:49:44.952Z,12.00
2023-02-08T11:52:34.060Z,11.91
2023-02-08T11:55:21.021Z,11.07
2023-02-08T11:57:58.519Z,11.01
2023-02-08T12:00:51.200Z,10.92
2023-02-08T12:03:28.732Z,11.47
2023-02-08T12:06:21.959Z,11.83
2023-02-08T12:09:02.859Z,12.30
2023-02-08T12:11:44.410Z,12.53
2023-02-08T12:14:32.967Z,12.99
2023-02-08T12:17:28.783Z,13.22
2023-02-08T12:20:34.274Z,13.61
2023-02-08T12:23:17.254Z,14.07
2023-02-08T12:25:57.085Z,14.25
2023-02-08T12:28:40.772Z,13.78
2023-02-08T12:31:34.004Z,12.23
2023-02-08T12:34:29.280Z,10.88
2023-02-08T12:37:32.678Z,9.98
2023-02-08T12:40:19.104Z,8.73
2023-02-08T12:43:17.907Z,7.46
2023-02-08T12:45:59.020Z,6.61
2023-02-08T12:48:48.225Z,5.76
2023-02-08T12:51:27.050Z,4.89
2023-02-08T12:54:01.717Z,4.56
2023-02-08T12:56:36.881Z,4.13
2023-02-08T12:59:13.838Z,3.50
2023-02-08T13:01:46.231Z,3.26
2023-02-08T13:04:47.275Z,2.95
2023-02-08T13:07:22.671Z,2.59
2023-02-08T13:10:12.216Z,2.22
2023-02-08T13:12:44.871Z,1.54
2023-02-08T13:15:31.249Z,1.31
2023-02-08T13:18:21.477Z,0.80
2023-02-08T13:20:58.088Z,0.57
2023-02-08T13:23:51.593Z,-0.14
2023-02-08T13:26:27.253Z,0.11
2023-02-08T13:28:59.446Z,-0.39
2023-02-08T13:31:34.460Z,-0.43
2023-02-08T13:34:25.844Z,-0.47
2023-02-08T13:37:01.094Z,-0.33
2023-02-08T13:39:40.173Z,-0.65
2023-02-08T13:42:19.536Z,-0.59
2023-02-08T13:44:53.306Z,-0.57
2023-02-08T13:47:49.101Z,-0.77
2023-02-08T13:50:35.286Z,-1.15
2023-02-08T13:53:06.897Z,-0.95
2023-02-08T13:56:00.794Z,-0.97
2023-02-08T13:58:40.913Z,-1.27
2023-02-08T14:01:22.673Z,-1.21
2023-02-08T14:04:10.682Z,-1.29
2023-02-08T14:06:48.057Z,-1.27
2023-02-08T14:09:16.009Z,-1.29
2023-02-08T14:11:53.793Z,-1.31
2023-02-08T14:14:29.917Z,-1.37
2023-02-08T14:17:19.537Z,-1.54
2023-02-08T14:19:58.517Z,-1.59
2023-02-08T14:22:35.794Z,-1.72
2023-02-08T14:25:18.506Z,-1.80
2023-02-08T14:27:54.332Z,-1.89
2023-02-08T14:30:50.705Z,-2.14
2023-02-08T14:33:28.464Z,-2.32
2023-02-08T14:36:03.646Z,-2.39
2023-02-08T14:38:48.588Z,-2.49
2023-02-08T14:41:55.060Z,-2.60
2023-02-08T14:44:46.825Z,-2.72
2023-02-08T14:47:27.297Z,-2.91
2023-02-08T14:50:18.210Z,-3.04
2023-02-08T14:53:03.422Z,-3.27
2023-02-08T14:55:37.591Z,-3.48
2023-02-08T14:58:13.642Z,-3.67
2023-02-08T15:00:43.493Z,-3.85
2023-02-08T15:03:18.278Z,-4.01
2023-02-08T15:06:12.180Z,-4.21
2023-02-08T15:08:40.271Z,-4.44
2023-02-08T15:11:25.641Z,-4.69
2023-02-08T15:13:56.321Z,-4.88
2023-02-08T15:16:34.657Z,-5.06
2023-02-08T15:19:07.898Z,-5.26
2023-02-08T15:21:37.785Z,-5.41
2023-02-08T15:24:18.196Z,-5.55
2023-02-08T15:26:48.543Z,-5.73
2023-02-08T15:29:32.668Z,-5.88
2023-02-08T15:32:03.562Z,-6.03
2023-02-08T15:34:31.002Z,-6.14
2023-02-08T15:36:58.595Z,-6.28
2023-02-08T15:39:36.347Z,-6.44
2023-02-08T15:42:03.663Z,-6.57
2023-02-08T15:44:36.787Z,-6.66
2023-02-08T15:47:06.512Z,-6.64
2023-02-08T15:49:38.232Z,-6.65
2023-02-08T15:52:06.857Z,-6.67
2023-02-08T15:54:34.529Z,-6.71
2023-02-08T15:57:09.887Z,-6.76
2023-02-08T15:59:40.300Z,-6.87
2023-02-08T16:02:35.083Z,-6.98
2023-02-08T16:05:11.925Z,-7.10
2023-02-08T16:07:45.118Z,-7.20
2023-02-08T16:10:44.981Z,-7.25
2023-02-08T16:13:48.040Z,-7.32
2023-02-08T16:16:26.922Z,-7.43
2023-02-08T16:19:21.770Z,-7.59
2023-02-08T16:21:49.724Z,-7.74
2023-02-08T16:24:16.760Z,-7.83
2023-02-08T16:26:54.672Z,-7.93
2023-02-08T16:29:39.809Z,-8.08
2023-02-08T16:32:28.967Z,-8.30
2023-02-08T16:34:56.672Z,-8.47
2023-02-08T16:37:29.721Z,-8.63
2023-02-08T16:40:05.279Z,-8.76
2023-02-08T16:42:34.274Z,-8.87
2023-02-08T16:45:03.867Z,-8.97
2023-02-08T16:47:54.125Z,-9.08
2023-02-08T16:50:27.284Z,-9.17
2023-02-08T16:53:00.759Z,-9.26
2023-02-08T16:55:32.005Z,-9.35
2023-02-08T16:58:00.418Z,-9.44
2023-02-08T17:00:32.809Z,-9.50
2023-02-08T17:03:01.378Z,-9.58
2023-02-08T17:05:36.518Z,-9.64
2023-02-08T17:08:08.081Z,-9.71
2023-02-08T17:10:35.594Z,-9.77
2023-02-08T17:13:19.445Z,-9.80
2023-02-08T17:15:50.505Z,-9.89
2023-02-08T17:18:17.911Z,-10.00
2023-02-08T17:20:45.743Z,-10.05
2023-02-08T17:23:15.881Z,-10.06
2023-02-08T17:25:44.165Z,-10.02
2023-02-08T17:28:18.703Z,-10.05
2023-02-08T17:30:47.382Z,-10.07
2023-02-08T17:33:21.097Z,-10.11
2023-02-08T17:35:51.037Z,-10.15
2023-02-08T17:38:20.052Z,-10.22
2023-02-08T17:40:48.373Z,-10.29
2023-02-08T17:43:16.148Z,-10.31
2023-02-08T17:45:44.806Z,-10.41
2023-02-08T17:48:14.283Z,-10.49
2023-02-08T17:50:48.556Z,-10.52
2023-02-08T17:53:17.320Z,-10.52
2023-02-08T17:55:45.758Z,-10.54
2023-02-08T17:58:13.646Z,-10.60
2023-02-08T18:00:41.574Z,-10.64
2023-02-08T18:03:09.499Z,-10.71
2023-02-08T18:05:37.805Z,-10.77
2023-02-08T18:08:05.635Z,-10.83
2023-02-08T18:10:33.215Z,-10.85
2023-02-08T18:13:00.937Z,-10.91
2023-02-08T18:15:28.621Z,-10.98
2023-02-08T18:17:56.014Z,-11.04
2023-02-08T18:20:23.751Z,-11.12
2023-02-08T18:22:51.176Z,-11.20
2023-02-08T18:25:19.297Z,-11.28
2023-02-08T18:27:46.622Z,-11.37
2023-02-08T18:30:15.066Z,-11.45
2023-02-08T18:32:45.675Z,-11.56
2023-02-08T18:35:12.953Z,-11.63
2023-02-08T18:37:40.574Z,-11.70
2023-02-08T18:40:09.169Z,-11.73
2023-02-08T18:42:36.584Z,-11.78
2023-02-08T18:45:05.772Z,-11.84
2023-02-08T18:47:37.164Z,-11.86
2023-02-08T18:50:06.146Z,-11.90
2023-02-08T18:52:34.619Z,-11.93
2023-02-08T18:55:02.708Z,-11.94
2023-02-08T18:57:30.537Z,-11.98
2023-02-08T18:59:58.042Z,-12.01
2023-02-08T19:02:26.582Z,-12.05
2023-02-08T19:04:54.507Z,-12.08
2023-02-08T19:07:21.832Z,-12.12
2023-02-08T19:09:49.871Z,-12.16
2023-02-08T19:12:19.392Z,-12.15
2023-02-08T19:14:50.604Z,-12.23
2023-02-08T19:17:18.400Z,-12.32
2023-02-08T19:19:46.974Z,-12.41
2023-02-08T19:22:14.586Z,-12.47
2023-02-08T19:24:44.990Z,-12.50
2023-02-08T19:27:12.596Z,-12.49
2023-02-08T19:29:39.824Z,-12.43
2023-02-08T19:32:08.520Z,-12.40
2023-02-08T19:34:36.017Z,-12.42
2023-02-08T19:37:03.687Z,-12.46
2023-02-08T19:39:31.597Z,-12.53
2023-02-08T19:41:59.179Z,-12.62
2023-02-08T19:44:29.859Z,-12.74
2023-02-08T19:46:58.054Z,-12.74
2023-02-08T19:49:29.039Z,-12.78
2023-02-08T19:51:57.896Z,-12.85
2023-02-08T19:54:26.043Z,-12.87
2023-02-08T19:56:55.004Z,-12.88
2023-02-08T19:59:25.946Z,-12.90
2023-02-08T20:01:55.604Z,-12.95
2023-02-08T20:04:27.826Z,-12.99
2023-02-08T20:06:55.480Z,-12.99
2023-02-08T20:09:25.361Z,-13.03
2023-02-08T20:12:00.130Z,-13.03
2023-02-08T20:14:31.679Z,-13.04
2023-02-08T20:16:59.927Z,-13.09
2023-02-08T20:19:28.646Z,-13.13
2023-02-08T20:21:56.692Z,-13.21
2023-02-08T20:24:23.977Z,-13.27
2023-02-08T20:26:51.378Z,-13.33
2023-02-08T20:29:20.225Z,-13.33
2023-02-08T20:31:49.677Z,-13.34
2023-02-08T20:34:19.033Z,-13.31
2023-02-08T20:37:08.254Z,-13.27
2023-02-08T20:39:37.302Z,-13.26
2023-02-08T20:42:05.240Z,-13.25
2023-02-08T20:44:33.641Z,-13.27
2023-02-08T20:47:01.529Z,-13.27
2023-02-08T20:49:30.085Z,-13.26
2023-02-08T20:51:57.717Z,-13.26
2023-02-08T20:54:25.427Z,-13.29
2023-02-08T20:56:54.228Z,-13.32
2023-02-08T20:59:22.449Z,-13.35
2023-02-08T21:01:51.842Z,-13.40
2023-02-08T21:04:24.305Z,-13.51
2023-02-08T21:06:52.048Z,-13.63
2023-02-08T21:09:20.696Z,-13.76
2023-02-08T21:11:48.351Z,-13.78
2023-02-08T21:14:20.872Z,-13.80
2023-02-08T21:16:52.465Z,-13.81
2023-02-08T21:19:21.050Z,-13.84
2023-02-08T21:22:03.056Z,-13.88
2023-02-08T21:24:31.163Z,-13.92
2023-02-08T21:26:58.482Z,-13.94
2023-02-08T21:29:25.812Z,-13.93
2023-02-08T21:31:54.777Z,-13.93
2023-02-08T21:34:22.279Z,-13.95
2023-02-08T21:36:49.966Z,-14.00
2023-02-08T21:39:17.475Z,-14.01
2023-02-08T21:41:45.446Z,-14.04
2023-02-08T21:44:12.933Z,-14.07
2023-02-08T21:46:40.164Z,-14.09
2023-02-08T21:49:26.208Z,-14.13
2023-02-08T21:52:12.297Z,-14.20
2023-02-08T21:54:42.744Z,-14.23
2023-02-08T21:57:19.318Z,-14.25
2023-02-08T21:59:48.795Z,-14.26
2023-02-08T22:02:28.089Z,-14.28
2023-02-08T22:05:16.434Z,-14.33
2023-02-08T22:07:54.277Z,-14.40
2023-02-08T22:10:24.672Z,-14.47
2023-02-08T22:12:56.007Z,-14.53
2023-02-08T22:15:25.730Z,-14.57
2023-02-08T22:17:58.962Z,-14.61
2023-02-08T22:20:26.373Z,-14.62
2023-02-08T22:22:56.938Z,-14.63
2023-02-08T22:25:24.465Z,-14.64
2023-02-08T22:27:52.725Z,-14.70
2023-02-08T22:30:22.833Z,-14.73
2023-02-08T22:32:52.109Z,-14.78
2023-02-08T22:35:19.628Z,-14.82
2023-02-08T22:37:47.262Z,-14.83
2023-02-08T22:40:14.409Z,-14.82
2023-02-08T22:42:42.735Z,-14.76
2023-02-08T22:45:10.831Z,-14.75
2023-02-08T22:47:38.574Z,-14.72
2023-02-08T22:50:07.783Z,-14.70
2023-02-08T22:52:35.430Z,-14.63
2023-02-08T22:55:04.305Z,-14.59
2023-02-08T22:57:33.235Z,-14.60
2023-02-08T23:00:00.849Z,-14.67
2023-02-08T23:02:28.361Z,-14.74
2023-02-08T23:04:55.992Z,-14.79
2023-02-08T23:07:23.541Z,-14.83
2023-02-08T23:09:50.574Z,-14.82
2023-02-08T23:12:19.205Z,-14.82
2023-02-08T23:14:48.745Z,-14.79
2023-02-08T23:17:16.579Z,-14.77
2023-02-08T23:19:44.071Z,-14.74
2023-02-08T23:22:11.561Z,-14.70
2023-02-08T23:24:39.180Z,-14.67
2023-02-08T23:27:06.293Z,-14.65
2023-02-08T23:29:35.405Z,-14.70
2023-02-08T23:32:03.758Z,-14.76
2023-02-08T23:34:31.193Z,-14.85
2023-02-08T23:36:58.615Z,-14.88
2023-02-08T23:39:25.814Z,-14.85
2023-02-08T23:41:56.523Z,-14.83
2023-02-08T23:44:25.441Z,-14.83
2023-02-08T23:46:53.744Z,-14.83
2023-02-08T23:49:21.078Z,-14.83
2023-02-08T23:51:48.332Z,-14.89
2023-02-08T23:54:15.502Z,-14.93
2023-02-08T23:56:44.453Z,-14.98
2023-02-08T23:59:12.184Z,-14.95
